Página principal
METAR-TAF:

METAR-TAF

Aeroportos :

Nouakchott, Mauritânia

Aeroporto Internacional Nouakchott-Oumtounsy

latitude: 18-18-36N, longitude: 015-58-11W, altura: 3 m

Observação actual do tempo

O boletim foi feito há 21 minutos, às 21:30 UTC
Vento 7 kt de oes-sudoeste
Temperatura 23°C
Humidade 78%
Pressão 1012 hPa
Visibilidade: 8000 m

METAR: GQNO 232130Z 25007KT 8000 NSC 23/19 Q1012 NOSIG

Hora: 21:51 (21:51 UTC)

Previsão

O boletim foi feito há 4 horas e 51 minutos, às 17:00 UTC
Previsão válida de 23 às 18 UTC a 24 às 24 UTC
Vento 14 kt de noroeste
Visibilidade: 6000 m
Tornando-se
de 24 às 07 UTC a 24 às 09 UTC
Vento 10 kt de oeste
Tornando-se
de 24 às 14 UTC a 24 às 16 UTC
Vento 12 kt de nor-noroeste

TAF: GQNO 231700Z 2318/2424 32014KT 6000 NSC BECMG 2407/2409 26010KT BECMG 2414/2416 33012KT

Observações e previsões do tempo de mais de 4000 aeroportos (mensagens METAR e TAF).

As estações disponíveis são os pontos amarelos e vermelhos sobre o mapa.

Mova o rato sobre o mapa para ver o nome da estação.

Depois clique no ponto para visualizar as observações e previsões meteorológicas.

Para alterar o mapa : clique nos botões verdes com uma cruz preta para aumentar o zoom; no botão verde com uma pitada de zoom; ou nas setas verdes para mapas adjacentes.


METAR-TAF: